createdAt,value
2023-02-17T00:01:37.043Z,6.69
2023-02-17T00:04:04.960Z,7.84
2023-02-17T00:06:32.979Z,7.98
2023-02-17T00:09:02.167Z,6.53
2023-02-17T00:11:30.250Z,5.25
2023-02-17T00:13:58.161Z,5.65
2023-02-17T00:16:28.105Z,7.43
2023-02-17T00:18:59.037Z,7.93
2023-02-17T00:21:29.635Z,6.41
2023-02-17T00:23:58.838Z,5.19
2023-02-17T00:26:26.871Z,5.67
2023-02-17T00:28:54.844Z,7.11
2023-02-17T00:31:23.981Z,7.87
2023-02-17T00:33:55.860Z,6.92
2023-02-17T00:36:24.989Z,5.52
2023-02-17T00:38:56.269Z,6.11
2023-02-17T00:41:25.959Z,7.20
2023-02-17T00:43:54.071Z,7.89
2023-02-17T00:46:23.348Z,6.61
2023-02-17T00:48:55.773Z,5.74
2023-02-17T00:51:26.077Z,6.95
2023-02-17T00:53:54.577Z,8.03
2023-02-17T00:56:22.444Z,7.44
2023-02-17T00:58:50.329Z,6.04
2023-02-17T01:01:18.262Z,5.72
2023-02-17T01:03:46.216Z,6.98
2023-02-17T01:06:31.487Z,7.84
2023-02-17T01:08:59.867Z,7.08
2023-02-17T01:11:32.839Z,5.94
2023-02-17T01:14:02.526Z,6.25
2023-02-17T01:16:38.708Z,7.57
2023-02-17T01:19:13.100Z,8.00
2023-02-17T01:21:41.038Z,6.58
2023-02-17T01:24:12.933Z,5.88
2023-02-17T01:26:40.940Z,6.82
2023-02-17T01:29:09.161Z,7.79
2023-02-17T01:31:37.776Z,8.07
2023-02-17T01:34:05.955Z,6.80
2023-02-17T01:36:33.926Z,5.70
2023-02-17T01:39:02.016Z,6.16
2023-02-17T01:41:30.638Z,7.60
2023-02-17T01:44:04.893Z,8.02
2023-02-17T01:46:34.609Z,6.86
2023-02-17T01:49:15.642Z,5.90
2023-02-17T01:51:47.761Z,7.02
2023-02-17T01:54:31.735Z,8.35
2023-02-17T01:57:02.080Z,8.08
2023-02-17T01:59:31.602Z,6.72
2023-02-17T02:02:04.753Z,5.92
2023-02-17T02:04:37.605Z,7.26
2023-02-17T02:07:11.065Z,8.05
2023-02-17T02:09:47.314Z,7.20
2023-02-17T02:12:21.663Z,6.07
2023-02-17T02:14:51.610Z,5.72
2023-02-17T02:17:36.755Z,7.35
2023-02-17T02:20:43.080Z,8.24
2023-02-17T02:23:50.097Z,6.70
2023-02-17T02:26:42.595Z,5.52
2023-02-17T02:29:48.183Z,6.77
2023-02-17T02:33:08.582Z,8.27
2023-02-17T02:35:57.714Z,7.02
2023-02-17T02:38:34.281Z,5.70
2023-02-17T02:41:14.066Z,6.05
2023-02-17T02:43:43.194Z,7.72
2023-02-17T02:46:11.245Z,8.10
2023-02-17T02:48:39.845Z,6.86
2023-02-17T02:51:21.615Z,5.99
2023-02-17T02:54:08.675Z,7.16
2023-02-17T02:56:58.769Z,7.74
2023-02-17T03:00:06.020Z,6.63
2023-02-17T03:02:46.174Z,5.53
2023-02-17T03:05:23.484Z,6.57
2023-02-17T03:08:08.712Z,8.19
2023-02-17T03:10:46.504Z,8.22
2023-02-17T03:13:14.990Z,7.03
2023-02-17T03:15:44.524Z,6.01
2023-02-17T03:18:12.551Z,7.13
2023-02-17T03:20:50.968Z,8.59
2023-02-17T03:23:19.973Z,8.15
2023-02-17T03:25:47.859Z,6.83
2023-02-17T03:28:15.863Z,5.85
2023-02-17T03:30:44.359Z,5.64
2023-02-17T03:33:12.319Z,7.37
2023-02-17T03:35:40.840Z,8.55
2023-02-17T03:38:08.709Z,7.49
2023-02-17T03:40:37.490Z,6.24
2023-02-17T03:43:05.393Z,6.26
2023-02-17T03:45:36.969Z,7.89
2023-02-17T03:48:05.019Z,8.82
2023-02-17T03:50:32.908Z,7.54
2023-02-17T03:53:00.773Z,6.37
2023-02-17T03:55:28.649Z,5.63
2023-02-17T03:57:56.610Z,5.42
2023-02-17T04:00:24.766Z,7.07
2023-02-17T04:02:52.683Z,8.59
2023-02-17T04:05:21.116Z,8.11
2023-02-17T04:07:51.804Z,6.92
2023-02-17T04:10:19.860Z,5.98
2023-02-17T04:13:34.073Z,5.70
2023-02-17T04:16:05.791Z,7.60
2023-02-17T04:18:38.413Z,8.71
2023-02-17T04:21:06.895Z,7.65
2023-02-17T04:23:37.260Z,6.51
2023-02-17T04:26:06.846Z,5.78
2023-02-17T04:28:39.451Z,6.79
2023-02-17T04:31:07.528Z,8.31
2023-02-17T04:33:35.711Z,7.77
2023-02-17T04:36:05.178Z,6.74
2023-02-17T04:38:33.927Z,5.87
2023-02-17T04:41:02.279Z,6.74
2023-02-17T04:43:30.657Z,8.31
2023-02-17T04:45:59.400Z,8.60
2023-02-17T04:48:27.392Z,7.44
2023-02-17T04:50:55.411Z,6.44
2023-02-17T04:53:23.683Z,5.71
2023-02-17T04:55:53.524Z,5.65
2023-02-17T04:58:21.834Z,7.24
2023-02-17T05:00:50.930Z,8.73
2023-02-17T05:03:19.192Z,9.23
2023-02-17T05:05:47.570Z,7.83
2023-02-17T05:08:16.050Z,6.77
2023-02-17T05:10:44.009Z,6.04
2023-02-17T05:13:11.933Z,6.48
2023-02-17T05:15:39.865Z,8.23
2023-02-17T05:18:07.857Z,9.16
2023-02-17T05:20:35.784Z,8.13
2023-02-17T05:23:03.776Z,7.02
2023-02-17T05:25:31.983Z,6.33
2023-02-17T05:27:59.926Z,7.76
2023-02-17T05:30:28.856Z,8.73
2023-02-17T05:32:56.919Z,7.64
2023-02-17T05:35:24.984Z,6.64
2023-02-17T05:37:52.885Z,5.97
2023-02-17T05:40:20.935Z,5.99
2023-02-17T05:42:48.832Z,7.88
2023-02-17T05:45:17.301Z,9.00
2023-02-17T05:47:45.552Z,8.36
2023-02-17T05:50:14.019Z,7.13
2023-02-17T05:52:42.056Z,6.27
2023-02-17T05:55:10.082Z,6.20
2023-02-17T05:57:38.032Z,7.92
2023-02-17T06:00:06.785Z,9.55
2023-02-17T06:02:40.360Z,10.16
2023-02-17T06:05:08.670Z,8.98
2023-02-17T06:07:36.616Z,7.80
2023-02-17T06:10:05.259Z,6.96
2023-02-17T06:12:33.141Z,6.76
2023-02-17T06:15:01.068Z,8.56
2023-02-17T06:17:32.181Z,9.60
2023-02-17T06:20:00.182Z,8.68
2023-02-17T06:22:28.554Z,7.58
2023-02-17T06:24:56.469Z,6.78
2023-02-17T06:27:24.639Z,6.69
2023-02-17T06:29:52.728Z,8.57
2023-02-17T06:32:20.686Z,10.00
2023-02-17T06:34:48.746Z,10.14
2023-02-17T06:37:17.301Z,8.81
2023-02-17T06:39:45.255Z,7.73
2023-02-17T06:42:13.581Z,7.18
2023-02-17T06:44:41.508Z,8.45
2023-02-17T06:47:09.938Z,9.27
2023-02-17T06:49:40.404Z,8.61
2023-02-17T06:52:08.737Z,7.63
2023-02-17T06:54:36.710Z,7.33
2023-02-17T06:57:04.744Z,9.08
2023-02-17T06:59:34.185Z,10.06
2023-02-17T07:02:02.740Z,8.97
2023-02-17T07:04:35.243Z,7.90
2023-02-17T07:07:03.303Z,7.22
2023-02-17T07:09:31.241Z,7.65
2023-02-17T07:11:59.228Z,9.37
2023-02-17T07:14:28.120Z,10.25
2023-02-17T07:16:56.140Z,9.34
2023-02-17T07:19:24.627Z,8.28
2023-02-17T07:21:52.837Z,7.56
2023-02-17T07:24:20.880Z,7.51
2023-02-17T07:26:49.024Z,9.03
2023-02-17T07:29:17.004Z,10.70
2023-02-17T07:31:44.965Z,11.47
2023-02-17T07:34:12.959Z,10.47
2023-02-17T07:36:40.974Z,9.46
2023-02-17T07:39:08.895Z,8.55
2023-02-17T07:41:36.975Z,7.90
2023-02-17T07:44:10.167Z,7.47
2023-02-17T07:46:39.876Z,7.64
2023-02-17T07:49:08.415Z,9.15
2023-02-17T07:51:36.381Z,10.58
2023-02-17T07:54:04.799Z,10.06
2023-02-17T07:56:34.070Z,9.12
2023-02-17T07:59:02.083Z,8.31
2023-02-17T08:01:30.050Z,8.22
2023-02-17T08:03:58.061Z,10.03
2023-02-17T08:06:26.694Z,11.31
2023-02-17T08:09:22.585Z,10.42
2023-02-17T08:12:09.666Z,9.22
2023-02-17T08:14:40.505Z,8.38
2023-02-17T08:17:08.948Z,8.44
2023-02-17T08:19:47.489Z,10.43
2023-02-17T08:22:17.616Z,10.85
2023-02-17T08:24:47.388Z,9.99
2023-02-17T08:27:16.101Z,9.14
2023-02-17T08:29:44.966Z,8.52
2023-02-17T08:32:15.111Z,8.20
2023-02-17T08:34:43.154Z,9.52
2023-02-17T08:37:11.735Z,10.87
2023-02-17T08:39:39.835Z,10.44
2023-02-17T08:42:07.855Z,9.55
2023-02-17T08:44:37.303Z,8.87
2023-02-17T08:47:07.217Z,8.38
2023-02-17T08:49:35.935Z,8.51
2023-02-17T08:52:04.370Z,10.19
2023-02-17T08:54:32.771Z,11.08
2023-02-17T08:57:00.853Z,10.23
2023-02-17T08:59:29.275Z,9.42
2023-02-17T09:01:57.710Z,8.74
2023-02-17T09:04:26.001Z,8.71
2023-02-17T09:06:56.894Z,10.81
2023-02-17T09:09:27.029Z,11.77
2023-02-17T09:11:58.740Z,10.56
2023-02-17T09:14:27.019Z,9.43
2023-02-17T09:16:55.942Z,9.28
2023-02-17T09:19:24.657Z,11.17
2023-02-17T09:21:52.768Z,11.09
2023-02-17T09:24:20.754Z,9.89
2023-02-17T09:26:48.800Z,9.40
2023-02-17T09:29:16.740Z,11.05
2023-02-17T09:31:46.633Z,12.12
2023-02-17T09:34:15.071Z,10.99
2023-02-17T09:36:43.270Z,9.93
2023-02-17T09:39:13.811Z,9.93
2023-02-17T09:41:47.872Z,11.48
2023-02-17T09:44:22.006Z,12.47
2023-02-17T09:47:08.259Z,10.98
2023-02-17T09:49:44.952Z,9.87
2023-02-17T09:52:41.427Z,11.21
2023-02-17T09:55:23.357Z,11.68
2023-02-17T09:58:14.024Z,10.38
2023-02-17T10:00:46.870Z,10.78
2023-02-17T10:03:58.861Z,12.43
2023-02-17T10:06:36.406Z,11.79
2023-02-17T10:09:12.914Z,10.35
2023-02-17T10:12:01.437Z,10.90
2023-02-17T10:15:00.721Z,12.54
2023-02-17T10:17:29.226Z,11.34
2023-02-17T10:20:29.011Z,10.36
2023-02-17T10:23:07.337Z,11.01
2023-02-17T10:25:52.167Z,12.52
2023-02-17T10:29:05.054Z,12.37
2023-02-17T10:31:46.789Z,10.58
2023-02-17T10:34:57.736Z,10.59
2023-02-17T10:37:58.964Z,12.60
2023-02-17T10:40:29.270Z,12.50
2023-02-17T10:43:06.316Z,11.23
2023-02-17T10:45:48.047Z,10.65
2023-02-17T10:51:30.512Z,11.84
2023-02-17T10:54:13.976Z,10.82
2023-02-17T10:56:48.234Z,10.62
2023-02-17T10:59:31.166Z,12.33
2023-02-17T11:02:17.105Z,12.30
2023-02-17T11:04:51.331Z,11.15
2023-02-17T11:07:51.773Z,10.65
2023-02-17T11:10:28.410Z,12.14
2023-02-17T11:12:58.782Z,12.59
2023-02-17T11:15:30.755Z,11.06
2023-02-17T11:18:01.649Z,10.66
2023-02-17T11:20:35.247Z,11.97
2023-02-17T11:23:15.838Z,12.85
2023-02-17T11:25:54.765Z,11.34
2023-02-17T11:28:24.991Z,10.78
2023-02-17T11:30:59.130Z,12.31
2023-02-17T11:33:39.416Z,12.52
2023-02-17T11:36:11.382Z,10.73
2023-02-17T11:38:39.258Z,11.10
2023-02-17T11:41:08.844Z,12.61
2023-02-17T11:43:54.321Z,12.00
2023-02-17T11:46:45.168Z,10.65
2023-02-17T11:49:41.243Z,11.91
2023-02-17T11:52:31.864Z,12.24
2023-02-17T11:55:23.651Z,10.59
2023-02-17T11:58:04.875Z,11.70
2023-02-17T12:00:49.708Z,12.70
2023-02-17T12:03:52.799Z,11.24
2023-02-17T12:06:40.522Z,10.60
2023-02-17T12:09:24.284Z,12.34
2023-02-17T12:12:18.444Z,11.60
2023-02-17T12:15:25.552Z,10.78
2023-02-17T12:18:32.866Z,12.25
2023-02-17T12:21:16.202Z,12.32
2023-02-17T12:24:02.565Z,10.65
2023-02-17T12:26:42.158Z,11.55
2023-02-17T12:29:10.078Z,12.85
2023-02-17T12:31:56.750Z,11.85
2023-02-17T12:35:04.692Z,10.69
2023-02-17T12:37:40.581Z,12.32
2023-02-17T12:40:48.919Z,12.02
2023-02-17T12:43:30.476Z,10.43
2023-02-17T12:46:00.592Z,11.57
2023-02-17T12:49:01.647Z,12.76
2023-02-17T12:51:39.450Z,11.18
2023-02-17T12:54:34.655Z,10.77
2023-02-17T12:57:13.768Z,12.55
2023-02-17T12:59:45.360Z,12.07
2023-02-17T13:02:25.722Z,10.49
2023-02-17T13:04:59.366Z,10.98
2023-02-17T13:08:17.707Z,12.44
2023-02-17T13:10:45.882Z,11.74
2023-02-17T13:13:44.887Z,10.79
2023-02-17T13:16:19.437Z,11.54
2023-02-17T13:18:50.607Z,12.85
2023-02-17T13:21:28.695Z,11.70
2023-02-17T13:24:09.014Z,10.78
2023-02-17T13:26:42.169Z,11.79
2023-02-17T13:29:25.556Z,12.80
2023-02-17T13:31:56.312Z,11.86
2023-02-17T13:34:28.795Z,11.07
2023-02-17T13:36:57.787Z,12.56
2023-02-17T13:39:30.644Z,12.23
2023-02-17T13:42:02.621Z,10.82
2023-02-17T13:44:40.747Z,11.40
2023-02-17T13:47:38.256Z,12.81
2023-02-17T13:50:10.691Z,12.26
2023-02-17T13:52:43.152Z,10.86
2023-02-17T14:08:42.328Z,11.93
2023-02-17T14:11:22.066Z,10.79
2023-02-17T14:13:54.982Z,11.79
2023-02-17T14:16:41.228Z,13.19
2023-02-17T14:19:16.954Z,12.11
2023-02-17T14:22:20.064Z,10.79
2023-02-17T14:25:04.241Z,12.26
2023-02-17T14:27:50.286Z,12.91
2023-02-17T14:30:35.424Z,11.58
2023-02-17T14:33:16.315Z,11.14
2023-02-17T14:35:55.070Z,12.74
2023-02-17T14:38:59.064Z,13.16
2023-02-17T14:41:27.501Z,11.34
2023-02-17T14:43:55.695Z,11.12
2023-02-17T14:46:24.119Z,12.39
2023-02-17T14:48:52.961Z,13.16
2023-02-17T14:51:22.958Z,11.89
2023-02-17T14:53:52.071Z,11.19
2023-02-17T14:56:26.279Z,12.29
2023-02-17T14:58:55.825Z,13.05
2023-02-17T15:01:25.677Z,11.62
2023-02-17T15:03:57.002Z,11.78
2023-02-17T15:06:30.710Z,13.20
2023-02-17T15:09:04.511Z,12.31
2023-02-17T15:11:36.989Z,11.44
2023-02-17T15:14:06.436Z,12.54
2023-02-17T15:16:37.548Z,13.52
2023-02-17T15:19:12.229Z,12.93
2023-02-17T15:21:46.051Z,11.88
2023-02-17T15:24:21.072Z,12.87
2023-02-17T15:26:49.723Z,13.68
2023-02-17T15:29:21.980Z,12.38
2023-02-17T15:31:52.599Z,11.61
2023-02-17T15:34:24.459Z,13.00
2023-02-17T15:36:52.659Z,13.85
2023-02-17T15:39:22.704Z,13.48
2023-02-17T15:41:53.733Z,11.87
2023-02-17T15:44:41.232Z,12.50
2023-02-17T15:47:16.112Z,13.62
2023-02-17T15:49:44.012Z,13.97
2023-02-17T15:52:13.712Z,12.79
2023-02-17T15:54:43.464Z,11.91
2023-02-17T15:57:24.395Z,12.92
2023-02-17T15:59:55.426Z,13.69
2023-02-17T16:02:26.066Z,13.97
2023-02-17T16:04:54.088Z,13.73
2023-02-17T16:07:22.392Z,12.21
2023-02-17T16:09:50.752Z,11.78
2023-02-17T16:12:27.344Z,13.04
2023-02-17T16:14:57.255Z,13.85
2023-02-17T16:17:26.067Z,13.77
2023-02-17T16:19:54.279Z,12.31
2023-02-17T16:22:22.544Z,11.56
2023-02-17T16:24:50.500Z,13.04
2023-02-17T16:27:18.606Z,13.33
2023-02-17T16:29:46.692Z,12.17
2023-02-17T16:32:14.705Z,11.95
2023-02-17T16:34:44.840Z,13.08
2023-02-17T16:37:17.436Z,13.93
2023-02-17T16:39:46.024Z,13.48
2023-02-17T16:42:15.553Z,11.80
2023-02-17T16:44:44.308Z,12.46
2023-02-17T16:47:25.565Z,13.46
2023-02-17T16:49:53.673Z,14.12
2023-02-17T16:52:28.175Z,13.53
2023-02-17T16:54:56.068Z,12.05
2023-02-17T16:57:32.337Z,13.04
2023-02-17T17:00:22.377Z,14.00
2023-02-17T17:02:50.934Z,12.63
2023-02-17T17:05:20.202Z,11.78
2023-02-17T17:07:48.187Z,12.94
2023-02-17T17:10:23.485Z,14.01
2023-02-17T17:12:51.435Z,12.99
2023-02-17T17:15:19.584Z,12.20
2023-02-17T17:18:05.751Z,13.32
2023-02-17T17:31:20.280Z,14.10
2023-02-17T17:33:49.454Z,13.93
2023-02-17T17:36:36.054Z,12.34
2023-02-17T17:39:06.674Z,12.77
2023-02-17T17:41:35.105Z,14.14
2023-02-17T17:44:03.340Z,13.03
2023-02-17T17:46:37.504Z,12.19
2023-02-17T17:49:09.139Z,13.26
2023-02-17T17:51:39.237Z,14.17
2023-02-17T17:54:08.174Z,13.53
2023-02-17T17:56:39.437Z,12.23
2023-02-17T17:59:07.447Z,12.71
2023-02-17T18:01:35.588Z,13.69
2023-02-17T18:04:04.692Z,14.10
2023-02-17T18:06:41.925Z,13.19
2023-02-17T18:09:25.840Z,12.49
2023-02-17T18:12:03.081Z,13.25
2023-02-17T18:14:32.098Z,14.31
2023-02-17T18:17:00.259Z,13.30
2023-02-17T18:19:30.636Z,12.48
2023-02-17T18:21:58.604Z,13.71
2023-02-17T18:24:26.737Z,14.39
2023-02-17T18:26:55.195Z,13.51
2023-02-17T18:29:23.378Z,12.43
2023-02-17T18:31:51.388Z,13.35
2023-02-17T18:34:19.434Z,14.29
2023-02-17T18:36:47.397Z,14.50
2023-02-17T18:39:15.550Z,13.12
2023-02-17T18:41:44.653Z,13.10
2023-02-17T18:44:13.955Z,14.30
2023-02-17T18:46:42.647Z,14.28
2023-02-17T18:49:17.425Z,12.95
2023-02-17T18:51:45.918Z,13.41
2023-02-17T18:54:14.822Z,14.11
2023-02-17T18:56:42.779Z,14.53
2023-02-17T18:59:10.721Z,14.25
2023-02-17T19:01:40.966Z,13.01
2023-02-17T19:04:09.901Z,13.35
2023-02-17T19:06:37.803Z,14.45
2023-02-17T19:09:06.493Z,13.87
2023-02-17T19:11:35.088Z,12.77
2023-02-17T19:14:04.237Z,13.56
2023-02-17T19:16:33.446Z,14.41
2023-02-17T19:19:01.995Z,14.41
2023-02-17T19:21:30.828Z,13.00
2023-02-17T19:23:58.982Z,13.18
2023-02-17T19:26:26.948Z,14.32
2023-02-17T19:28:54.968Z,14.28
2023-02-17T19:31:23.395Z,12.88
2023-02-17T19:33:51.421Z,13.25
2023-02-17T19:36:23.722Z,14.19
2023-02-17T19:38:51.677Z,14.63
2023-02-17T19:41:19.856Z,13.51
2023-02-17T19:43:47.740Z,12.61
2023-02-17T19:46:19.932Z,13.37
2023-02-17T19:48:47.885Z,14.18
2023-02-17T19:51:15.850Z,14.62
2023-02-17T19:53:44.362Z,14.32
2023-02-17T19:56:14.024Z,13.17
2023-02-17T19:58:44.024Z,13.79
2023-02-17T20:01:16.083Z,14.10
2023-02-17T20:03:44.724Z,14.10
2023-02-17T20:06:21.130Z,14.63
2023-02-17T20:08:59.394Z,14.77
2023-02-17T20:11:28.817Z,15.17
2023-02-17T20:13:59.077Z,14.13
2023-02-17T20:16:28.633Z,13.05
2023-02-17T20:18:57.570Z,13.66
2023-02-17T20:21:28.315Z,14.30
2023-02-17T20:23:57.742Z,14.74
2023-02-17T20:26:32.510Z,15.15
2023-02-17T20:29:02.046Z,14.31
2023-02-17T20:31:30.440Z,13.07
2023-02-17T20:34:04.015Z,13.66
2023-02-17T20:36:32.254Z,14.52
2023-02-17T20:39:00.441Z,15.04
2023-02-17T20:41:28.491Z,15.22
2023-02-17T20:43:59.556Z,13.86
2023-02-17T20:46:32.028Z,12.98
2023-02-17T20:48:59.931Z,14.14
2023-02-17T20:51:27.924Z,14.64
2023-02-17T20:53:55.804Z,15.07
2023-02-17T20:56:25.090Z,14.20
2023-02-17T20:58:53.424Z,13.08
2023-02-17T21:01:21.346Z,14.01
2023-02-17T21:03:49.427Z,15.07
2023-02-17T21:06:20.568Z,14.14
2023-02-17T21:08:51.865Z,13.07
2023-02-17T21:11:20.094Z,13.88
2023-02-17T21:13:48.087Z,14.36
2023-02-17T21:16:21.098Z,14.87
2023-02-17T21:18:49.292Z,14.28
2023-02-17T21:21:18.023Z,13.16
2023-02-17T21:23:48.792Z,13.75
2023-02-17T21:26:18.076Z,14.45
2023-02-17T21:28:47.030Z,14.49
2023-02-17T21:31:15.974Z,14.25
2023-02-17T21:33:44.211Z,14.34
2023-02-17T21:36:14.973Z,14.73
2023-02-17T21:38:43.130Z,14.90
2023-02-17T21:41:18.485Z,13.65
2023-02-17T21:44:06.590Z,13.16
2023-02-17T21:46:37.534Z,13.98
2023-02-17T21:49:05.514Z,14.53
2023-02-17T21:51:33.465Z,14.69
2023-02-17T21:54:01.446Z,14.50
2023-02-17T21:56:29.413Z,14.70
2023-02-17T21:58:57.522Z,15.02
2023-02-17T22:01:27.408Z,14.42
2023-02-17T22:03:55.976Z,13.37
2023-02-17T22:06:28.009Z,13.81
2023-02-17T22:08:57.532Z,14.58
2023-02-17T22:11:31.103Z,15.22
2023-02-17T22:14:01.888Z,14.52
2023-02-17T22:16:31.987Z,13.18
2023-02-17T22:19:00.616Z,13.76
2023-02-17T22:21:29.315Z,14.63
2023-02-17T22:23:58.976Z,15.16
2023-02-17T22:26:28.718Z,13.90
2023-02-17T22:28:57.504Z,13.53
2023-02-17T22:31:27.997Z,14.28
2023-02-17T22:33:57.332Z,15.22
2023-02-17T22:36:27.571Z,14.02
2023-02-17T22:38:55.583Z,13.67
2023-02-17T22:41:25.511Z,15.07
2023-02-17T22:43:54.446Z,14.87
2023-02-17T22:46:25.776Z,13.48
2023-02-17T22:48:55.825Z,13.42
2023-02-17T22:51:28.073Z,14.38
2023-02-17T22:53:56.311Z,15.06
2023-02-17T22:56:24.340Z,14.63
2023-02-17T22:58:56.559Z,13.40
2023-02-17T23:01:25.464Z,14.03
2023-02-17T23:03:54.792Z,14.74
2023-02-17T23:06:27.498Z,14.92
2023-02-17T23:08:56.472Z,13.42
2023-02-17T23:11:47.637Z,13.16
2023-02-17T23:14:37.096Z,14.43
2023-02-17T23:17:07.633Z,15.01
2023-02-17T23:19:36.412Z,15.22
2023-02-17T23:22:10.963Z,14.99
2023-02-17T23:24:38.861Z,13.72
2023-02-17T23:27:06.790Z,13.89
2023-02-17T23:29:34.971Z,14.83
2023-02-17T23:32:02.845Z,15.17
2023-02-17T23:34:30.894Z,14.70
2023-02-17T23:36:59.487Z,14.82
2023-02-17T23:39:27.624Z,15.03
2023-02-17T23:41:55.746Z,15.03
2023-02-17T23:44:23.615Z,15.61
2023-02-17T23:46:52.065Z,15.32
2023-02-17T23:49:19.939Z,15.24
2023-02-17T23:51:47.946Z,14.98
2023-02-17T23:54:15.984Z,15.53
2023-02-17T23:56:44.216Z,14.92
2023-02-17T23:59:12.366Z,13.68
